createdAt,value
2019-05-03T00:00:16.130Z,84.58
2019-05-03T00:01:16.140Z,85.20
2019-05-03T00:02:16.082Z,85.10
2019-05-03T00:03:16.081Z,85.41
2019-05-03T00:04:16.072Z,85.30
2019-05-03T00:05:16.163Z,85.30
2019-05-03T00:06:16.033Z,85.71
2019-05-03T00:07:16.053Z,86.33
2019-05-03T00:08:16.028Z,86.43
2019-05-03T00:09:16.094Z,86.54
2019-05-03T00:10:16.015Z,86.54
2019-05-03T00:11:16.026Z,86.43
2019-05-03T00:12:15.976Z,86.13
2019-05-03T00:13:16.066Z,85.82
2019-05-03T00:14:15.957Z,85.92
2019-05-03T00:15:16.047Z,86.47
2019-05-03T00:16:15.918Z,87.40
2019-05-03T00:17:15.939Z,86.99
2019-05-03T00:18:15.909Z,87.36
2019-05-03T00:19:15.903Z,87.19
2019-05-03T00:20:15.895Z,87.15
2019-05-03T00:21:17.958Z,86.37
2019-05-03T00:22:15.861Z,86.58
2019-05-03T00:23:15.941Z,86.68
2019-05-03T00:24:15.832Z,86.68
2019-05-03T00:25:15.933Z,86.88
2019-05-03T00:26:15.813Z,87.51
2019-05-03T00:27:15.814Z,87.09
2019-05-03T00:28:15.795Z,87.19
2019-05-03T00:29:15.855Z,87.09
2019-05-03T00:30:15.775Z,87.09
2019-05-03T00:31:15.786Z,86.99
2019-05-03T00:32:15.746Z,87.81
2019-05-03T00:33:16.747Z,87.40
2019-05-03T00:34:15.717Z,87.40
2019-05-03T00:35:15.717Z,87.87
2019-05-03T00:36:15.707Z,87.92
2019-05-03T00:37:15.797Z,87.67
2019-05-03T00:38:15.669Z,88.18
2019-05-03T00:39:15.730Z,87.46
2019-05-03T00:40:15.660Z,86.95
2019-05-03T00:41:15.649Z,86.85
2019-05-03T00:42:15.731Z,86.95
2019-05-03T00:43:15.621Z,87.15
2019-05-03T00:44:15.683Z,86.95
2019-05-03T00:45:15.592Z,86.74
2019-05-03T00:46:15.592Z,86.91
2019-05-03T00:47:16.602Z,87.32
2019-05-03T00:48:15.573Z,87.32
2019-05-03T00:49:16.635Z,86.85
2019-05-03T00:50:15.525Z,87.01
2019-05-03T00:51:15.545Z,86.70
2019-05-03T00:52:15.515Z,87.22
2019-05-03T00:53:15.587Z,86.29
2019-05-03T00:54:15.496Z,85.98
2019-05-03T00:55:18.988Z,86.08
2019-05-03T00:56:15.488Z,86.40
2019-05-03T00:57:15.458Z,86.29
2019-05-03T00:58:15.531Z,86.02
2019-05-03T00:59:15.449Z,85.57
2019-05-03T01:00:15.459Z,86.29
2019-05-03T01:01:15.431Z,85.78
2019-05-03T01:02:15.411Z,85.88
2019-05-03T01:03:15.392Z,86.19
2019-05-03T01:04:17.462Z,86.08
2019-05-03T01:05:15.373Z,86.19
2019-05-03T01:06:15.423Z,86.19
2019-05-03T01:07:15.333Z,86.43
2019-05-03T01:08:15.404Z,86.91
2019-05-03T01:09:15.337Z,86.95
2019-05-03T01:10:15.344Z,87.01
2019-05-03T01:11:15.315Z,86.91
2019-05-03T01:12:15.375Z,86.91
2019-05-03T01:13:15.347Z,87.84
2019-05-03T01:14:15.271Z,87.32
2019-05-03T01:15:15.278Z,86.91
2019-05-03T01:16:15.267Z,86.50
2019-05-03T01:17:15.318Z,86.19
2019-05-03T01:18:15.219Z,86.91
2019-05-03T01:19:15.249Z,87.22
2019-05-03T01:20:15.209Z,86.91
2019-05-03T01:21:15.230Z,86.70
2019-05-03T01:22:15.180Z,87.42
2019-05-03T01:23:15.220Z,87.12
2019-05-03T01:24:17.957Z,87.32
2019-05-03T01:25:28.498Z,87.32
2019-05-03T01:26:16.162Z,86.91
2019-05-03T01:27:15.205Z,87.32
2019-05-03T01:28:15.126Z,86.70
2019-05-03T01:29:15.104Z,86.91
2019-05-03T01:30:15.094Z,87.52
2019-05-03T01:31:15.177Z,87.52
2019-05-03T01:32:15.096Z,87.52
2019-05-03T01:33:15.106Z,87.73
2019-05-03T01:34:15.051Z,87.94
2019-05-03T01:35:15.148Z,87.84
2019-05-03T01:36:15.027Z,87.73
2019-05-03T01:37:15.119Z,88.04
2019-05-03T01:38:14.998Z,87.90
2019-05-03T01:39:16.039Z,87.63
2019-05-03T01:40:14.981Z,87.42
2019-05-03T01:41:16.069Z,87.32
2019-05-03T01:42:14.981Z,87.28
2019-05-03T01:43:14.991Z,87.73
2019-05-03T01:44:14.937Z,87.28
2019-05-03T01:45:14.922Z,87.63
2019-05-03T01:46:14.992Z,87.49
2019-05-03T01:47:14.923Z,87.69
2019-05-03T01:48:14.924Z,87.69
2019-05-03T01:49:14.884Z,87.69
2019-05-03T01:50:14.878Z,87.49
2019-05-03T01:51:14.855Z,86.66
2019-05-03T01:52:15.966Z,86.87
2019-05-03T01:53:14.846Z,86.87
2019-05-03T01:54:14.926Z,86.87
2019-05-03T01:55:15.976Z,86.87
2019-05-03T01:56:14.797Z,87.28
2019-05-03T01:57:14.888Z,87.49
2019-05-03T01:58:14.778Z,87.34
2019-05-03T01:59:15.799Z,87.24
2019-05-03T02:00:14.759Z,86.66
2019-05-03T02:01:14.762Z,86.72
2019-05-03T02:02:14.831Z,87.07
2019-05-03T02:03:14.722Z,87.07
2019-05-03T02:04:14.822Z,87.18
2019-05-03T02:05:14.713Z,87.07
2019-05-03T02:06:14.692Z,86.87
2019-05-03T02:07:14.692Z,86.93
2019-05-03T02:08:14.803Z,87.13
2019-05-03T02:09:14.655Z,86.83
2019-05-03T02:10:14.724Z,86.83
2019-05-03T02:11:14.647Z,86.15
2019-05-03T02:12:14.649Z,86.32
2019-05-03T02:13:14.726Z,87.24
2019-05-03T02:14:14.607Z,86.93
2019-05-03T02:15:14.667Z,86.83
2019-05-03T02:16:14.579Z,87.65
2019-05-03T02:17:14.618Z,87.45
2019-05-03T02:18:15.224Z,87.69
2019-05-03T02:19:14.559Z,87.55
2019-05-03T02:20:14.600Z,87.55
2019-05-03T02:21:14.542Z,87.45
2019-05-03T02:22:14.542Z,87.55
2019-05-03T02:23:14.530Z,87.13
2019-05-03T02:24:14.572Z,87.13
2019-05-03T02:25:14.482Z,87.04
2019-05-03T02:26:14.512Z,87.13
2019-05-03T02:27:14.473Z,87.75
2019-05-03T02:28:14.464Z,87.34
2019-05-03T02:29:14.444Z,87.38
2019-05-03T02:30:14.665Z,86.83
2019-05-03T02:31:14.416Z,87.34
2019-05-03T02:32:14.525Z,87.55
2019-05-03T02:33:14.427Z,86.83
2019-05-03T02:34:14.396Z,87.34
2019-05-03T02:35:14.437Z,86.42
2019-05-03T02:36:14.357Z,86.83
2019-05-03T02:37:14.468Z,87.45
2019-05-03T02:38:14.360Z,86.72
2019-05-03T02:39:14.400Z,87.04
2019-05-03T02:40:14.326Z,87.28
2019-05-03T02:41:14.331Z,86.62
2019-05-03T02:42:16.088Z,86.11
2019-05-03T02:43:16.580Z,86.05
2019-05-03T02:44:15.647Z,85.60
2019-05-03T02:45:15.469Z,85.39
2019-05-03T02:46:16.777Z,85.43
2019-05-03T02:47:15.912Z,85.18
2019-05-03T02:48:16.520Z,84.88
2019-05-03T02:49:15.361Z,85.28
2019-05-03T02:50:16.677Z,84.88
2019-05-03T02:51:15.603Z,85.18
2019-05-03T02:52:15.132Z,84.88
2019-05-03T02:53:15.694Z,85.39
2019-05-03T02:54:15.669Z,85.14
2019-05-03T02:55:16.056Z,85.55
2019-05-03T02:56:21.969Z,85.49
2019-05-03T02:57:15.170Z,85.28
2019-05-03T02:58:15.910Z,85.18
2019-05-03T02:59:15.705Z,85.39
2019-05-03T03:00:16.283Z,85.18
2019-05-03T03:01:16.261Z,85.18
2019-05-03T03:02:15.191Z,85.28
2019-05-03T03:03:16.662Z,85.90
2019-05-03T03:04:15.829Z,87.45
2019-05-03T03:05:16.626Z,86.25
2019-05-03T03:06:15.656Z,86.15
2019-05-03T03:07:15.163Z,85.60
2019-05-03T03:08:16.270Z,86.21
2019-05-03T03:09:16.472Z,86.83
2019-05-03T03:10:16.179Z,86.93
2019-05-03T03:11:15.568Z,87.38
2019-05-03T03:12:15.282Z,86.62
2019-05-03T03:13:16.291Z,87.24
2019-05-03T03:14:16.675Z,87.04
2019-05-03T03:15:16.170Z,86.93
2019-05-03T03:16:15.874Z,87.24
2019-05-03T03:17:14.927Z,87.04
2019-05-03T03:18:15.695Z,86.83
2019-05-03T03:19:15.912Z,86.72
2019-05-03T03:20:16.099Z,87.55
2019-05-03T03:21:16.007Z,87.55
2019-05-03T03:22:15.966Z,87.38
2019-05-03T03:23:17.819Z,87.04
2019-05-03T03:24:16.378Z,87.13
2019-05-03T03:25:17.581Z,87.65
2019-05-03T03:26:15.560Z,87.59
2019-05-03T03:27:16.303Z,86.97
2019-05-03T03:28:15.856Z,86.83
2019-05-03T03:29:16.051Z,87.34
2019-05-03T03:30:17.291Z,86.32
2019-05-03T03:31:17.617Z,86.32
2019-05-03T03:32:18.282Z,85.49
2019-05-03T03:33:17.547Z,85.46
2019-05-03T03:34:17.896Z,84.26
2019-05-03T03:35:20.170Z,83.85
2019-05-03T03:36:42.240Z,83.40
2019-05-03T03:37:15.689Z,83.50
2019-05-03T03:38:15.478Z,83.81
2019-05-03T03:39:15.105Z,82.37
2019-05-03T03:40:15.941Z,81.96
2019-05-03T03:41:16.226Z,82.27
2019-05-03T03:42:15.973Z,83.61
2019-05-03T03:43:15.667Z,84.01
2019-05-03T03:44:15.320Z,84.12
2019-05-03T03:45:16.322Z,84.01
2019-05-03T03:46:15.833Z,83.70
2019-05-03T03:47:16.366Z,81.51
2019-05-03T03:48:15.847Z,81.24
2019-05-03T03:49:15.483Z,80.69
2019-05-03T03:50:15.136Z,80.07
2019-05-03T03:51:15.539Z,81.62
2019-05-03T03:52:15.869Z,82.13
2019-05-03T03:53:15.454Z,82.33
2019-05-03T03:54:15.518Z,82.13
2019-05-03T03:55:15.955Z,79.15
2019-05-03T03:56:15.936Z,78.02
2019-05-03T03:57:15.959Z,78.94
2019-05-03T03:58:21.155Z,78.33
2019-05-03T03:59:15.416Z,78.50
2019-05-03T04:00:16.070Z,77.26
2019-05-03T04:01:15.638Z,76.96
2019-05-03T04:02:15.918Z,76.75
2019-05-03T04:03:15.866Z,76.86
2019-05-03T04:04:15.879Z,75.83
2019-05-03T04:05:15.811Z,75.11
2019-05-03T04:06:15.414Z,75.32
2019-05-03T04:07:15.858Z,75.62
2019-05-03T04:08:16.061Z,75.11
2019-05-03T04:09:15.902Z,74.80
2019-05-03T04:10:15.688Z,74.08
2019-05-03T04:11:15.555Z,74.26
2019-05-03T04:12:16.230Z,74.91
2019-05-03T04:13:16.029Z,74.91
2019-05-03T04:14:15.954Z,74.91
2019-05-03T04:15:15.917Z,74.29
2019-05-03T04:16:17.048Z,75.21
2019-05-03T04:17:15.053Z,75.73
2019-05-03T04:18:16.169Z,75.42
2019-05-03T04:19:13.242Z,75.42
2019-05-03T04:20:16.105Z,76.75
2019-05-03T04:21:16.037Z,78.29
2019-05-03T04:22:13.221Z,76.55
2019-05-03T04:23:16.030Z,75.52
2019-05-03T04:24:16.364Z,75.52
2019-05-03T04:25:15.316Z,76.65
2019-05-03T04:26:16.004Z,76.58
2019-05-03T04:27:22.278Z,76.65
2019-05-03T04:28:16.329Z,76.79
2019-05-03T04:29:16.034Z,76.58
2019-05-03T04:30:16.194Z,77.81
2019-05-03T04:31:15.262Z,78.53
2019-05-03T04:32:19.957Z,78.74
2019-05-03T04:33:15.827Z,79.36
2019-05-03T04:34:16.284Z,79.46
2019-05-03T04:35:16.109Z,79.46
2019-05-03T04:36:15.759Z,79.46
2019-05-03T04:37:15.900Z,79.77
2019-05-03T04:38:16.035Z,79.01
2019-05-03T04:39:17.088Z,79.01
2019-05-03T04:40:15.699Z,79.32
2019-05-03T04:41:15.683Z,79.01
2019-05-03T04:42:16.149Z,79.25
2019-05-03T04:43:12.973Z,79.15
2019-05-03T04:44:15.310Z,78.64
2019-05-03T04:45:12.962Z,79.46
2019-05-03T04:46:13.012Z,79.66
2019-05-03T04:47:15.402Z,79.77
2019-05-03T04:48:15.944Z,79.25
2019-05-03T04:49:15.141Z,80.18
2019-05-03T04:50:12.935Z,80.01
2019-05-03T04:51:12.895Z,79.70
2019-05-03T04:52:12.885Z,79.08
2019-05-03T04:53:12.876Z,79.49
2019-05-03T04:54:16.093Z,79.39
2019-05-03T04:55:15.739Z,79.43
2019-05-03T04:56:12.888Z,79.12
2019-05-03T04:57:15.814Z,79.39
2019-05-03T04:58:16.154Z,79.53
2019-05-03T04:59:12.802Z,78.50
2019-05-03T05:00:12.820Z,78.50
2019-05-03T05:01:15.547Z,77.99
2019-05-03T05:02:15.649Z,77.37
2019-05-03T05:03:15.012Z,78.30
2019-05-03T05:04:16.187Z,78.20
2019-05-03T05:05:15.181Z,77.68
2019-05-03T05:06:15.244Z,77.41
2019-05-03T05:07:15.261Z,77.41
2019-05-03T05:08:12.715Z,77.62
2019-05-03T05:09:15.347Z,77.92
2019-05-03T05:10:15.119Z,76.90
2019-05-03T05:11:15.250Z,75.76
2019-05-03T05:12:12.736Z,76.79
2019-05-03T05:13:12.645Z,75.67
2019-05-03T05:14:15.107Z,75.39
2019-05-03T05:15:12.636Z,77.03
2019-05-03T05:16:12.759Z,76.62
2019-05-03T05:17:12.600Z,76.83
2019-05-03T05:18:12.640Z,76.93
2019-05-03T05:19:12.588Z,76.93
2019-05-03T05:20:14.449Z,78.06
2019-05-03T05:21:12.583Z,78.54
2019-05-03T05:22:12.609Z,77.55
2019-05-03T05:23:14.621Z,76.73
2019-05-03T05:24:12.530Z,77.55
2019-05-03T05:25:14.719Z,78.06
2019-05-03T05:26:14.451Z,77.14
2019-05-03T05:27:14.513Z,76.93
2019-05-03T05:28:12.512Z,76.83
2019-05-03T05:29:14.609Z,77.03
2019-05-03T05:30:12.475Z,76.52
2019-05-03T05:31:15.147Z,77.03
2019-05-03T05:32:14.358Z,76.62
2019-05-03T05:33:12.454Z,76.83
2019-05-03T05:34:12.415Z,76.90
2019-05-03T05:35:14.483Z,76.83
2019-05-03T05:36:12.406Z,76.93
2019-05-03T05:37:14.429Z,76.93
2019-05-03T05:38:12.378Z,76.59
2019-05-03T05:39:12.458Z,77.14
2019-05-03T05:40:12.358Z,77.20
2019-05-03T05:41:12.448Z,76.79
2019-05-03T05:42:12.350Z,76.73
2019-05-03T05:43:15.127Z,76.62
2019-05-03T05:44:14.412Z,76.69
2019-05-03T05:45:12.311Z,77.00
2019-05-03T05:46:12.301Z,77.00
2019-05-03T05:47:12.312Z,76.90
2019-05-03T05:48:12.272Z,76.93
2019-05-03T05:49:12.342Z,76.42
2019-05-03T05:50:12.248Z,77.00
2019-05-03T05:51:14.190Z,76.69
2019-05-03T05:52:12.234Z,76.79
2019-05-03T05:53:12.315Z,76.18
2019-05-03T05:54:14.253Z,75.97
2019-05-03T05:55:12.255Z,75.52
2019-05-03T05:56:12.186Z,74.80
2019-05-03T05:57:12.187Z,74.40
2019-05-03T05:58:12.157Z,73.74
2019-05-03T05:59:12.230Z,74.02
2019-05-03T06:00:12.132Z,72.85
2019-05-03T06:01:12.140Z,72.92
2019-05-03T06:02:12.109Z,72.20
2019-05-03T06:03:12.199Z,70.87
2019-05-03T06:04:12.096Z,71.25
2019-05-03T06:05:12.131Z,70.32
2019-05-03T06:06:12.164Z,70.22
2019-05-03T06:07:12.062Z,70.12
2019-05-03T06:08:12.131Z,69.10
2019-05-03T06:09:12.032Z,68.89
2019-05-03T06:10:14.652Z,69.27
2019-05-03T06:11:12.034Z,69.57
2019-05-03T06:12:12.104Z,68.55
2019-05-03T06:13:11.994Z,67.73
2019-05-03T06:14:12.046Z,68.04
2019-05-03T06:15:11.965Z,68.32
2019-05-03T06:16:11.976Z,68.24
2019-05-03T06:17:11.966Z,68.24
2019-05-03T06:18:12.017Z,67.63
2019-05-03T06:19:11.918Z,68.65
2019-05-03T06:20:11.948Z,67.73
2019-05-03T06:21:11.915Z,68.27
2019-05-03T06:22:11.900Z,68.27
2019-05-03T06:23:11.886Z,68.72
2019-05-03T06:24:11.929Z,70.05
2019-05-03T06:25:11.862Z,70.26
2019-05-03T06:26:11.852Z,70.80
2019-05-03T06:27:11.849Z,70.80
2019-05-03T06:28:18.286Z,69.88
2019-05-03T06:29:14.832Z,70.01
2019-05-03T06:30:14.860Z,70.84
2019-05-03T06:31:11.782Z,70.63
2019-05-03T06:32:11.813Z,71.48
2019-05-03T06:33:11.764Z,71.38
2019-05-03T06:34:14.824Z,71.79
2019-05-03T06:35:11.746Z,71.38
2019-05-03T06:36:11.855Z,71.59
2019-05-03T06:37:11.736Z,71.48
2019-05-03T06:38:11.707Z,71.79
2019-05-03T06:39:12.767Z,71.55
2019-05-03T06:40:11.697Z,71.76
2019-05-03T06:41:11.791Z,72.31
2019-05-03T06:42:17.407Z,72.78
2019-05-03T06:43:12.967Z,70.97
2019-05-03T06:44:11.650Z,72.10
2019-05-03T06:45:11.930Z,72.10
2019-05-03T06:46:11.620Z,71.17
2019-05-03T06:47:14.717Z,71.59
2019-05-03T06:48:11.601Z,72.10
2019-05-03T06:49:11.622Z,71.69
2019-05-03T06:50:11.592Z,72.20
2019-05-03T06:51:17.231Z,72.00
2019-05-03T06:52:14.596Z,71.17
2019-05-03T06:53:13.008Z,70.97
2019-05-03T06:54:11.564Z,70.66
2019-05-03T06:55:11.529Z,70.56
2019-05-03T06:56:11.596Z,69.50
2019-05-03T06:57:11.517Z,69.40
2019-05-03T06:58:11.536Z,68.91
2019-05-03T06:59:11.496Z,70.15
2019-05-03T07:00:11.467Z,69.84
2019-05-03T07:01:11.554Z,69.32
2019-05-03T07:02:11.490Z,69.60
2019-05-03T07:03:11.470Z,70.12
2019-05-03T07:04:11.431Z,70.46
2019-05-03T07:05:11.521Z,71.17
2019-05-03T07:06:11.400Z,70.25
2019-05-03T07:07:11.451Z,70.79
2019-05-03T07:08:11.382Z,70.97
2019-05-03T07:09:11.494Z,71.11
2019-05-03T07:10:11.370Z,71.17
2019-05-03T07:11:11.352Z,71.59
2019-05-03T07:12:11.342Z,72.10
2019-05-03T07:13:11.394Z,71.17
2019-05-03T07:14:11.314Z,71.41
2019-05-03T07:15:11.305Z,71.21
2019-05-03T07:16:11.366Z,72.03
2019-05-03T07:17:11.286Z,72.03
2019-05-03T07:18:11.336Z,73.47
2019-05-03T07:19:11.257Z,72.44
2019-05-03T07:20:11.338Z,72.13
2019-05-03T07:21:11.237Z,73.27
2019-05-03T07:22:11.281Z,72.72
2019-05-03T07:23:11.239Z,72.24
2019-05-03T07:24:11.310Z,72.00
2019-05-03T07:25:11.190Z,72.10
2019-05-03T07:26:11.180Z,71.76
2019-05-03T07:27:11.213Z,71.76
2019-05-03T07:28:11.190Z,71.66
2019-05-03T07:29:11.251Z,71.31
2019-05-03T07:30:11.132Z,70.90
2019-05-03T07:31:11.133Z,72.03
2019-05-03T07:32:11.120Z,70.87
2019-05-03T07:33:15.027Z,69.64
2019-05-03T07:34:11.112Z,70.36
2019-05-03T07:35:11.165Z,69.43
2019-05-03T07:36:11.075Z,68.92
2019-05-03T07:37:11.055Z,69.71
2019-05-03T07:38:12.136Z,69.74
2019-05-03T07:39:11.037Z,68.38
2019-05-03T07:40:11.101Z,68.99
2019-05-03T07:41:11.027Z,68.92
2019-05-03T07:42:11.019Z,69.54
2019-05-03T07:43:11.028Z,69.84
2019-05-03T07:44:11.068Z,69.54
2019-05-03T07:45:10.980Z,69.23
2019-05-03T07:46:11.000Z,68.92
2019-05-03T07:47:10.971Z,69.57
2019-05-03T07:48:10.943Z,69.67
2019-05-03T07:49:11.061Z,69.98
2019-05-03T07:50:10.922Z,70.32
2019-05-03T07:51:10.943Z,70.73
2019-05-03T07:52:11.837Z,71.66
2019-05-03T07:53:10.893Z,71.14
2019-05-03T07:54:10.885Z,72.27
2019-05-03T07:55:10.904Z,70.97
2019-05-03T07:56:10.854Z,71.28
2019-05-03T07:57:10.955Z,71.89
2019-05-03T07:58:10.826Z,72.00
2019-05-03T07:59:10.928Z,72.72
2019-05-03T08:00:10.818Z,72.61
2019-05-03T08:01:10.820Z,72.65
2019-05-03T08:02:10.788Z,73.78
2019-05-03T08:03:10.858Z,73.36
2019-05-03T08:04:10.792Z,73.57
2019-05-03T08:05:10.790Z,73.61
2019-05-03T08:06:10.750Z,73.81
2019-05-03T08:07:20.655Z,73.81
2019-05-03T08:08:11.711Z,73.23
2019-05-03T08:09:10.728Z,73.23
2019-05-03T08:10:10.692Z,73.74
2019-05-03T08:11:10.703Z,74.46
2019-05-03T08:12:10.673Z,74.87
2019-05-03T08:13:10.743Z,75.08
2019-05-03T08:14:10.663Z,75.18
2019-05-03T08:15:10.644Z,74.80
2019-05-03T08:16:10.638Z,75.32
2019-05-03T08:17:10.615Z,75.39
2019-05-03T08:18:11.706Z,75.22
2019-05-03T08:19:10.618Z,74.36
2019-05-03T08:20:10.577Z,75.49
2019-05-03T08:21:10.568Z,75.08
2019-05-03T08:22:10.657Z,74.98
2019-05-03T08:23:23.667Z,74.67
2019-05-03T08:24:11.552Z,76.31
2019-05-03T08:25:11.580Z,75.63
2019-05-03T08:26:10.521Z,75.80
2019-05-03T08:27:10.590Z,74.67
2019-05-03T08:28:10.491Z,75.12
2019-05-03T08:29:16.089Z,74.80
2019-05-03T08:30:11.472Z,75.08
2019-05-03T08:31:10.462Z,75.59
2019-05-03T08:32:10.443Z,75.39
2019-05-03T08:33:10.508Z,75.56
2019-05-03T08:34:10.454Z,75.25
2019-05-03T08:35:10.472Z,74.63
2019-05-03T08:36:10.410Z,75.93
2019-05-03T08:37:10.477Z,74.08
2019-05-03T08:38:10.365Z,73.47
2019-05-03T08:39:10.407Z,74.50
2019-05-03T08:40:10.377Z,75.63
2019-05-03T08:41:10.958Z,74.15
2019-05-03T08:42:10.344Z,74.26
2019-05-03T08:43:10.379Z,73.91
2019-05-03T08:44:10.319Z,73.19
2019-05-03T08:45:10.359Z,71.97
2019-05-03T08:46:10.289Z,72.03
2019-05-03T08:47:10.291Z,72.14
2019-05-03T08:48:10.281Z,71.42
2019-05-03T08:49:11.312Z,70.64
2019-05-03T08:50:10.261Z,69.37
2019-05-03T08:51:11.873Z,69.27
2019-05-03T08:52:10.232Z,67.90
2019-05-03T08:53:10.223Z,67.49
2019-05-03T08:54:10.205Z,67.97
2019-05-03T08:55:10.215Z,67.05
2019-05-03T08:56:10.174Z,66.75
2019-05-03T08:57:10.236Z,66.95
2019-05-03T08:58:10.169Z,67.87
2019-05-03T08:59:10.177Z,67.90
2019-05-03T09:00:10.147Z,67.49
2019-05-03T09:01:10.138Z,67.19
2019-05-03T09:02:14.258Z,67.87
2019-05-03T09:03:11.108Z,66.95
2019-05-03T09:04:10.099Z,66.54
2019-05-03T09:05:10.119Z,67.43
2019-05-03T09:06:10.080Z,66.51
2019-05-03T09:07:10.110Z,66.89
2019-05-03T09:08:10.050Z,65.66
2019-05-03T09:09:10.030Z,64.40
2019-05-03T09:10:12.398Z,63.63
2019-05-03T09:11:11.013Z,62.58
2019-05-03T09:12:10.063Z,61.83
2019-05-03T09:13:10.003Z,61.63
2019-05-03T09:14:09.987Z,61.94
2019-05-03T09:15:09.985Z,60.82
2019-05-03T09:16:10.063Z,60.71
2019-05-03T09:17:09.984Z,60.71
2019-05-03T09:18:09.956Z,61.43
2019-05-03T09:19:09.926Z,60.58
2019-05-03T09:20:09.927Z,59.03
2019-05-03T09:21:09.967Z,58.11
2019-05-03T09:22:09.889Z,58.21
2019-05-03T09:23:09.899Z,58.11
2019-05-03T09:24:09.884Z,56.55
2019-05-03T09:25:09.879Z,58.01
2019-05-03T09:26:09.851Z,59.53
2019-05-03T09:27:09.871Z,57.17
2019-05-03T09:28:09.831Z,57.09
2019-05-03T09:29:09.925Z,56.48
2019-05-03T09:30:09.842Z,56.07
2019-05-03T09:31:09.853Z,54.24
2019-05-03T09:32:09.793Z,54.28
2019-05-03T09:33:09.884Z,56.23
2019-05-03T09:34:09.766Z,55.61
2019-05-03T09:35:09.825Z,54.59
2019-05-03T09:36:09.756Z,55.30
2019-05-03T09:37:09.755Z,55.10
2019-05-03T09:38:09.726Z,56.25
2019-05-03T09:39:09.798Z,56.38
2019-05-03T09:40:09.698Z,56.92
2019-05-03T09:41:09.697Z,58.48
2019-05-03T09:42:09.680Z,59.30
2019-05-03T09:43:09.770Z,59.22
2019-05-03T09:44:09.669Z,61.26
2019-05-03T09:45:09.699Z,60.27
2019-05-03T09:46:09.650Z,58.94
2019-05-03T09:47:09.621Z,59.20
2019-05-03T09:48:11.653Z,60.22
2019-05-03T09:49:13.713Z,61.66
2019-05-03T09:50:10.662Z,61.66
2019-05-03T09:51:09.593Z,59.92
2019-05-03T09:52:09.568Z,60.94
2019-05-03T09:53:09.563Z,59.92
2019-05-03T09:54:10.645Z,60.30
2019-05-03T09:55:09.536Z,61.60
2019-05-03T09:56:09.597Z,58.81
2019-05-03T09:57:09.518Z,58.81
2019-05-03T09:58:09.496Z,56.56
2019-05-03T09:59:09.548Z,56.66
2019-05-03T10:00:09.488Z,57.48
2019-05-03T10:01:09.543Z,57.43
2019-05-03T10:02:09.458Z,57.43
2019-05-03T10:03:09.450Z,56.51
2019-05-03T10:04:09.439Z,56.40
2019-05-03T10:05:11.431Z,56.48
2019-05-03T10:06:09.430Z,56.45
2019-05-03T10:07:09.501Z,55.66
2019-05-03T10:08:09.403Z,54.44
2019-05-03T10:09:09.433Z,54.95
2019-05-03T10:10:09.374Z,54.54
2019-05-03T10:11:09.424Z,54.33
2019-05-03T10:12:09.343Z,53.92
2019-05-03T10:13:14.585Z,54.33
2019-05-03T10:14:10.325Z,54.51
2019-05-03T10:15:09.346Z,54.64
2019-05-03T10:16:09.316Z,54.82
2019-05-03T10:17:10.396Z,54.28
2019-05-03T10:18:11.011Z,54.18
2019-05-03T10:19:09.276Z,53.36
2019-05-03T10:20:09.270Z,53.47
2019-05-03T10:21:09.299Z,53.85
2019-05-03T10:22:09.249Z,53.34
2019-05-03T10:23:09.293Z,52.81
2019-05-03T10:24:09.220Z,53.75
2019-05-03T10:25:09.217Z,54.46
2019-05-03T10:26:09.242Z,51.81
2019-05-03T10:27:09.972Z,52.86
2019-05-03T10:28:09.222Z,54.18
2019-05-03T10:29:09.172Z,54.28
2019-05-03T10:30:13.075Z,54.46
2019-05-03T10:31:10.155Z,53.44
2019-05-03T10:32:09.135Z,52.22
2019-05-03T10:33:09.934Z,54.46
2019-05-03T10:34:09.125Z,53.22
2019-05-03T10:35:09.095Z,52.12
2019-05-03T10:36:09.105Z,52.14
2019-05-03T10:37:09.147Z,50.99
2019-05-03T10:38:09.058Z,50.71
2019-05-03T10:39:09.068Z,51.63
2019-05-03T10:40:09.039Z,52.25
2019-05-03T10:41:09.040Z,52.73
2019-05-03T10:42:11.069Z,52.25
2019-05-03T10:43:09.012Z,54.16
2019-05-03T10:44:10.033Z,52.40
2019-05-03T10:45:08.982Z,51.89
2019-05-03T10:46:08.973Z,51.97
2019-05-03T10:47:08.972Z,50.11
2019-05-03T10:48:08.993Z,51.05
2019-05-03T10:49:08.943Z,51.76
2019-05-03T10:50:09.023Z,48.81
2019-05-03T10:51:08.916Z,50.95
2019-05-03T10:52:08.924Z,50.92
2019-05-03T10:53:08.900Z,50.95
2019-05-03T10:54:08.995Z,51.07
2019-05-03T10:55:08.886Z,50.97
2019-05-03T10:56:08.926Z,51.61
2019-05-03T10:57:08.867Z,51.61
2019-05-03T10:58:08.830Z,51.28
2019-05-03T10:59:08.838Z,49.93
2019-05-03T11:00:08.819Z,49.24
2019-05-03T11:01:09.909Z,49.13
2019-05-03T11:02:08.820Z,49.52
2019-05-03T11:03:08.780Z,50.52
2019-05-03T11:04:08.871Z,48.64
2019-05-03T11:05:08.761Z,49.37
2019-05-03T11:06:08.761Z,49.35
2019-05-03T11:07:08.752Z,48.92
2019-05-03T11:08:08.734Z,47.88
2019-05-03T11:09:08.733Z,47.06
2019-05-03T11:10:08.724Z,49.28
2019-05-03T11:11:08.705Z,48.39
2019-05-03T11:12:08.695Z,46.89
2019-05-03T11:13:08.685Z,46.70
2019-05-03T11:14:09.666Z,46.93
2019-05-03T11:15:08.667Z,47.54
2019-05-03T11:16:08.696Z,48.96
2019-05-03T11:17:08.657Z,48.66
2019-05-03T11:18:08.619Z,46.91
2019-05-03T11:19:08.618Z,47.31
2019-05-03T11:20:08.609Z,48.11
2019-05-03T11:21:08.630Z,46.60
2019-05-03T11:22:08.590Z,48.31
2019-05-03T11:23:08.671Z,47.19
2019-05-03T11:24:08.562Z,47.39
2019-05-03T11:25:08.601Z,48.11
2019-05-03T11:26:08.537Z,46.37
2019-05-03T11:27:09.603Z,46.09
2019-05-03T11:28:08.523Z,47.03
2019-05-03T11:29:08.575Z,47.62
2019-05-03T11:30:09.676Z,46.93
2019-05-03T11:31:08.505Z,47.95
2019-05-03T11:32:10.342Z,47.52
2019-05-03T11:33:08.486Z,48.03
2019-05-03T11:34:08.458Z,47.74
2019-05-03T11:35:08.460Z,48.56
2019-05-03T11:36:08.438Z,48.89
2019-05-03T11:37:08.458Z,49.29
2019-05-03T11:38:08.409Z,47.24
2019-05-03T11:39:08.459Z,47.64
2019-05-03T11:40:08.385Z,48.05
2019-05-03T11:41:08.371Z,47.16
2019-05-03T11:42:08.471Z,47.87
2019-05-03T11:43:08.361Z,47.56
2019-05-03T11:44:08.392Z,48.19
2019-05-03T11:45:08.332Z,47.87
2019-05-03T11:46:08.323Z,49.32
2019-05-03T11:47:08.303Z,48.71
2019-05-03T11:48:08.413Z,49.34
2019-05-03T11:49:08.295Z,49.04
2019-05-03T11:50:08.315Z,49.34
2019-05-03T11:51:08.257Z,50.21
2019-05-03T11:52:08.348Z,48.89
2019-05-03T11:53:08.245Z,47.97
2019-05-03T11:54:08.279Z,47.72
2019-05-03T11:55:11.445Z,49.22
2019-05-03T11:56:08.317Z,47.39
2019-05-03T11:57:08.199Z,46.89
2019-05-03T11:58:09.219Z,46.07
2019-05-03T11:59:08.171Z,47.60
2019-05-03T12:00:09.210Z,47.09
2019-05-03T12:01:15.905Z,47.70
2019-05-03T12:02:09.141Z,47.39
2019-05-03T12:03:08.233Z,46.09
2019-05-03T12:04:08.124Z,47.42
2019-05-03T12:05:08.112Z,48.74
2019-05-03T12:06:08.094Z,48.23
2019-05-03T12:07:09.201Z,47.24
2019-05-03T12:08:08.074Z,47.31
2019-05-03T12:09:09.124Z,48.31
2019-05-03T12:10:17.113Z,46.37
2019-05-03T12:11:09.045Z,47.39
2019-05-03T12:12:08.027Z,46.91
2019-05-03T12:13:08.036Z,47.31
2019-05-03T12:14:08.009Z,47.42
2019-05-03T12:15:08.121Z,47.92
2019-05-03T12:16:16.983Z,48.03
2019-05-03T12:17:18.170Z,48.03
2019-05-03T12:18:09.730Z,48.66
2019-05-03T12:19:17.093Z,47.85
2019-05-03T12:20:10.656Z,48.68
2019-05-03T12:21:09.607Z,48.38
2019-05-03T12:22:08.514Z,47.46
2019-05-03T12:23:09.677Z,48.79
2019-05-03T12:24:08.556Z,48.99
2019-05-03T12:25:10.418Z,49.80
2019-05-03T12:26:12.921Z,50.21
2019-05-03T12:27:07.866Z,48.76
2019-05-03T12:28:07.935Z,47.72
2019-05-03T12:29:07.856Z,47.85
2019-05-03T12:30:07.836Z,47.34
2019-05-03T12:31:07.896Z,47.62
2019-05-03T12:32:07.808Z,47.85
2019-05-03T12:33:08.088Z,47.64
2019-05-03T12:34:07.789Z,47.85
2019-05-03T12:35:07.797Z,49.40
2019-05-03T12:36:08.397Z,49.50
2019-05-03T12:37:07.810Z,50.03
2019-05-03T12:38:07.741Z,49.29
2019-05-03T12:39:23.310Z,50.80
2019-05-03T12:40:08.732Z,47.85
2019-05-03T12:41:07.798Z,47.34
2019-05-03T12:42:07.704Z,47.95
2019-05-03T12:43:07.822Z,48.05
2019-05-03T12:44:07.713Z,48.05
2019-05-03T12:45:07.754Z,47.92
2019-05-03T12:46:07.725Z,47.42
2019-05-03T12:47:07.679Z,46.91
2019-05-03T12:48:07.756Z,46.98
2019-05-03T12:49:07.639Z,47.39
2019-05-03T12:50:07.696Z,47.50
2019-05-03T12:51:08.111Z,47.92
2019-05-03T12:52:10.303Z,47.80